Time;durP1;ratioP1;P1;durP2;ratioP2;P2;SDS_P1;SDS_P2;PMS_P1;PMS_P2;Temp;Humidity;BMP_temperature;BMP_pressure;BME280_temperature;BME280_humidity;BME280_pressure;Samples;Min_cycle;Max_cycle;Signal;HPM_P1;HPM_P2
2023/09/20 00:02:15;;;;;;;1.02;0.20;;;;;;;16.34;100.00;97731.47;5093989;27;20036;-81
2023/09/20 00:04:47;;;;;;;3.45;0.30;;;;;;;16.32;100.00;97713.06;5088611;28;20031;-81
2023/09/20 00:07:16;;;;;;;0.77;0.20;;;;;;;16.36;100.00;97716.03;5112201;27;20112;-81
2023/09/20 00:09:45;;;;;;;1.95;0.38;;;;;;;16.34;100.00;97702.94;5105659;28;20053;-79
2023/09/20 00:12:15;;;;;;;1.27;0.32;;;;;;;16.36;100.00;97697.34;5079642;28;20376;-79
2023/09/20 00:14:43;;;;;;;3.08;0.30;;;;;;;16.37;100.00;97712.31;5121355;27;20529;-80
2023/09/20 00:17:16;;;;;;;0.93;0.15;;;;;;;16.42;100.00;97698.25;5072375;28;20534;-80
2023/09/20 00:19:47;;;;;;;1.45;0.45;;;;;;;16.40;100.00;97693.16;5098847;28;20039;-80
2023/09/20 00:22:15;;;;;;;0.98;0.20;;;;;;;16.48;100.00;97679.34;5079367;28;22830;-80
2023/09/20 00:24:43;;;;;;;0.50;0.20;;;;;;;16.46;100.00;97689.50;5083445;28;20055;-79
2023/09/20 00:27:10;;;;;;;0.68;0.28;;;;;;;16.51;100.00;97677.25;5097106;28;20103;-80
2023/09/20 00:29:39;;;;;;;0.95;0.30;;;;;;;16.50;100.00;97663.09;5093527;28;20081;-80
2023/09/20 00:32:07;;;;;;;2.13;0.20;;;;;;;16.55;100.00;97673.00;5069514;28;20036;-80
2023/09/20 00:34:37;;;;;;;1.13;0.20;;;;;;;16.60;100.00;97657.88;5082676;28;20043;-77
2023/09/20 00:37:07;;;;;;;1.02;0.10;;;;;;;16.61;100.00;97661.38;5088435;28;20386;-79
2023/09/20 00:39:36;;;;;;;0.70;0.10;;;;;;;16.60;100.00;97649.06;5084690;28;21178;-78
2023/09/20 00:42:04;;;;;;;1.75;0.20;;;;;;;16.62;100.00;97657.63;5087254;28;20057;-79
2023/09/20 00:44:32;;;;;;;1.05;0.10;;;;;;;16.63;100.00;97637.91;5104613;28;20032;-79
2023/09/20 00:47:03;;;;;;;0.30;0.10;;;;;;;16.65;100.00;97626.97;5089990;28;20039;-81
2023/09/20 00:49:35;;;;;;;0.47;0.10;;;;;;;16.64;100.00;97614.72;5084274;28;20035;-81
2023/09/20 00:52:06;;;;;;;0.20;0.10;;;;;;;16.61;100.00;97605.38;5075282;28;20034;-80
2023/09/20 00:54:34;;;;;;;1.08;0.17;;;;;;;16.65;100.00;97595.78;5071297;28;20040;-80
2023/09/20 00:57:05;;;;;;;0.57;0.10;;;;;;;16.63;100.00;97607.78;5107018;27;20097;-81
2023/09/20 00:59:35;;;;;;;0.60;0.00;;;;;;;16.65;100.00;97601.13;5093498;28;20032;-82
2023/09/20 01:02:05;;;;;;;0.22;0.10;;;;;;;16.65;100.00;97602.97;5090990;28;20510;-81
2023/09/20 01:04:35;;;;;;;0.90;0.10;;;;;;;16.67;100.00;97583.00;5105288;28;20036;-80
2023/09/20 01:07:03;;;;;;;0.43;0.10;;;;;;;16.67;100.00;97575.00;5074409;28;20093;-80
2023/09/20 01:09:32;;;;;;;0.20;0.10;;;;;;;16.72;100.00;97577.69;5092798;28;20077;-81
2023/09/20 01:11:59;;;;;;;1.15;0.10;;;;;;;16.71;100.00;97570.75;5096438;28;20035;-79
2023/09/20 01:14:30;;;;;;;0.10;0.05;;;;;;;16.75;100.00;97563.06;5091115;28;20111;-79
2023/09/20 01:17:07;;;;;;;0.90;0.10;;;;;;;16.73;100.00;97568.66;5091781;28;20028;-81
2023/09/20 01:19:40;;;;;;;0.47;0.00;;;;;;;16.70;100.00;97561.16;5095788;28;20066;-78
2023/09/20 01:22:09;;;;;;;0.90;0.20;;;;;;;16.71;100.00;97562.75;5092322;28;20145;-80
2023/09/20 01:24:36;;;;;;;0.82;0.10;;;;;;;16.74;100.00;97546.25;5074141;28;20066;-80
2023/09/20 01:27:08;;;;;;;1.70;0.10;;;;;;;16.76;100.00;97559.31;5058344;28;20067;-81
2023/09/20 01:29:39;;;;;;;1.13;0.10;;;;;;;16.75;100.00;97557.72;5074299;28;20932;-79
2023/09/20 01:32:07;;;;;;;1.17;0.20;;;;;;;16.71;100.00;97545.94;5103254;28;20035;-79
2023/09/20 01:34:34;;;;;;;0.65;0.10;;;;;;;16.74;100.00;97550.75;5071161;28;20043;-80
2023/09/20 01:37:04;;;;;;;0.00;0.00;;;;;;;16.72;100.00;97540.34;5112521;27;20086;-79
2023/09/20 01:39:33;;;;;;;0.63;0.10;;;;;;;16.73;100.00;97538.50;5109938;27;20078;-80
2023/09/20 01:42:00;;;;;;;0.30;0.10;;;;;;;16.71;100.00;97545.94;5100115;28;20067;-79
2023/09/20 01:44:28;;;;;;;0.40;0.05;;;;;;;16.72;100.00;97539.56;5071946;28;20024;-79
2023/09/20 01:46:56;;;;;;;0.65;0.10;;;;;;;16.73;100.00;97546.50;5092293;28;20036;-79
2023/09/20 01:49:27;;;;;;;0.13;0.00;;;;;;;16.76;100.00;97564.66;5105468;28;20063;-80
2023/09/20 01:51:57;;;;;;;1.08;0.10;;;;;;;16.73;100.00;97547.31;5091763;27;20031;-80
2023/09/20 01:54:28;;;;;;;0.40;0.00;;;;;;;16.70;100.00;97553.16;5078115;28;20028;-80
2023/09/20 01:56:57;;;;;;;0.30;0.00;;;;;;;16.72;100.00;97536.91;5092505;28;20123;-79
2023/09/20 01:59:25;;;;;;;0.20;0.00;;;;;;;16.70;100.00;97529.16;5077551;28;20055;-79
2023/09/20 02:01:54;;;;;;;0.20;0.00;;;;;;;16.70;100.00;97521.16;5093619;27;20103;-80
2023/09/20 02:04:21;;;;;;;3.17;0.10;;;;;;;16.68;100.00;97530.47;5092629;27;20035;-80
2023/09/20 02:06:55;;;;;;;4.05;0.10;;;;;;;16.71;100.00;97529.94;5072887;28;20490;-81
2023/09/20 02:09:34;;;;;;;0.50;0.00;;;;;;;16.70;100.00;97525.69;5094435;27;20031;-80
2023/09/20 02:12:06;;;;;;;0.90;0.00;;;;;;;16.72;100.00;97523.56;5081201;27;20024;-80
2023/09/20 02:14:34;;;;;;;2.75;0.20;;;;;;;16.68;100.00;97539.28;5091478;28;20169;-78
2023/09/20 02:17:02;;;;;;;1.17;0.20;;;;;;;16.72;100.00;97550.25;5080478;28;20047;-79
2023/09/20 02:19:36;;;;;;;1.27;0.20;;;;;;;16.73;100.00;97544.66;5074690;27;20793;-82
2023/09/20 02:22:07;;;;;;;0.60;0.10;;;;;;;16.72;100.00;97526.25;5087823;27;20031;-79
2023/09/20 02:24:37;;;;;;;3.88;0.10;;;;;;;16.69;100.00;97532.88;5071608;28;20985;-80
2023/09/20 02:27:08;;;;;;;2.05;0.10;;;;;;;16.66;100.00;97533.38;5108423;28;20042;-80
2023/09/20 02:29:37;;;;;;;1.75;0.20;;;;;;;16.64;100.00;97529.38;5071512;28;20042;-79
2023/09/20 02:32:07;;;;;;;0.75;0.10;;;;;;;16.63;100.00;97533.13;5074290;28;20066;-79
2023/09/20 02:34:39;;;;;;;1.65;0.20;;;;;;;16.61;100.00;97528.03;5082366;28;20035;-82
2023/09/20 02:37:07;;;;;;;4.15;0.25;;;;;;;16.53;100.00;97518.63;5086975;28;20027;-81
2023/09/20 02:39:36;;;;;;;2.28;0.47;;;;;;;16.53;100.00;97521.28;5107537;28;20499;-81
2023/09/20 02:42:04;;;;;;;2.85;0.20;;;;;;;16.49;100.00;97520.22;5081907;28;20035;-80
2023/09/20 02:44:35;;;;;;;3.13;0.25;;;;;;;16.47;100.00;97507.13;5056933;28;20089;-79
2023/09/20 02:47:05;;;;;;;4.13;0.57;;;;;;;16.43;100.00;97523.91;5074347;28;20039;-82
2023/09/20 02:49:35;;;;;;;3.70;0.73;;;;;;;16.39;100.00;97517.47;5060333;28;20715;-80
2023/09/20 02:52:03;;;;;;;3.97;0.70;;;;;;;16.34;100.00;97508.38;5059492;28;20502;-80
2023/09/20 02:54:30;;;;;;;4.18;0.80;;;;;;;16.29;100.00;97504.88;5059839;28;20134;-78
2023/09/20 02:56:59;;;;;;;4.45;1.00;;;;;;;16.29;100.00;97486.22;5070201;28;20434;-78
2023/09/20 02:59:27;;;;;;;5.78;0.70;;;;;;;16.24;100.00;97487.75;5070058;28;20032;-80
2023/09/20 03:01:57;;;;;;;6.65;0.73;;;;;;;16.24;100.00;97474.44;5082651;28;20042;-81
2023/09/20 03:04:26;;;;;;;4.90;0.82;;;;;;;16.21;100.00;97480.28;5076286;28;20040;-80
2023/09/20 03:06:55;;;;;;;6.55;1.30;;;;;;;16.19;100.00;97468.28;5071884;28;20043;-80
2023/09/20 03:09:26;;;;;;;4.35;0.57;;;;;;;16.15;100.00;97464.53;5069308;28;20034;-78
2023/09/20 03:11:57;;;;;;;5.13;0.93;;;;;;;16.10;100.00;97458.09;5063532;28;20039;-83
2023/09/20 03:14:26;;;;;;;3.08;0.70;;;;;;;16.06;100.00;97458.84;5072250;28;20778;-78
2023/09/20 03:16:56;;;;;;;4.80;0.80;;;;;;;16.06;100.00;97457.00;5057008;28;20044;-80
2023/09/20 03:19:24;;;;;;;4.57;0.63;;;;;;;16.03;100.00;97462.84;5063829;28;20150;-78
2023/09/20 03:21:54;;;;;;;4.72;1.17;;;;;;;16.07;100.00;97465.81;5055740;28;20051;-78
2023/09/20 03:24:22;;;;;;;7.53;0.93;;;;;;;16.03;100.00;97459.38;5055430;28;20061;-81
2023/09/20 03:26:52;;;;;;;4.85;0.65;;;;;;;16.08;100.00;97475.41;5053542;28;20055;-80
2023/09/20 03:29:19;;;;;;;4.93;0.80;;;;;;;16.05;100.00;97467.91;5083904;28;20055;-81
2023/09/20 03:31:49;;;;;;;3.75;0.60;;;;;;;16.11;100.00;97465.03;5069477;28;21073;-83
2023/09/20 03:34:20;;;;;;;4.30;0.70;;;;;;;16.10;100.00;97458.09;5070522;28;20126;-80
2023/09/20 03:36:50;;;;;;;4.35;1.00;;;;;;;16.14;100.00;97452.25;5071573;28;20031;-80
2023/09/20 03:39:22;;;;;;;3.55;0.45;;;;;;;16.10;100.00;97447.44;5057068;28;20035;-80
2023/09/20 03:41:52;;;;;;;4.38;0.60;;;;;;;16.14;100.00;97434.41;5058627;28;20040;-80
2023/09/20 03:44:22;;;;;;;6.10;0.50;;;;;;;16.13;100.00;97438.16;5053225;28;20027;-77
2023/09/20 03:46:51;;;;;;;4.28;0.80;;;;;;;16.15;100.00;97449.31;5075226;27;20044;-79
2023/09/20 03:49:21;;;;;;;5.97;0.70;;;;;;;16.13;100.00;97443.47;5057985;28;20043;-79
2023/09/20 03:51:49;;;;;;;4.97;0.70;;;;;;;16.14;100.00;97444.25;5054567;28;20105;-79
2023/09/20 03:54:17;;;;;;;9.32;1.55;;;;;;;16.15;100.00;97432.56;5071897;28;20067;-80
2023/09/20 03:56:46;;;;;;;9.02;0.98;;;;;;;16.11;100.00;97443.72;5055937;28;20035;-80
2023/09/20 03:59:17;;;;;;;12.23;1.20;;;;;;;16.14;100.00;97441.59;5058258;28;20554;-79
2023/09/20 04:01:45;;;;;;;7.15;1.10;;;;;;;16.08;100.00;97440.75;5069232;28;20042;-79
2023/09/20 04:04:16;;;;;;;5.97;1.27;;;;;;;16.03;100.00;97465.50;5075453;28;20027;-79
2023/09/20 04:06:46;;;;;;;9.25;1.17;;;;;;;15.95;100.00;97463.25;5073608;28;20035;-76
2023/09/20 04:09:15;;;;;;;10.05;1.60;;;;;;;15.86;100.00;97479.69;5072208;28;20035;-78
2023/09/20 04:11:42;;;;;;;7.82;1.40;;;;;;;15.75;100.00;97480.69;5068716;28;20036;-79
2023/09/20 04:14:11;;;;;;;5.47;1.20;;;;;;;15.71;100.00;97490.22;5066702;28;20032;-78
2023/09/20 04:16:40;;;;;;;9.38;1.65;;;;;;;15.64;100.00;97487.75;5095188;28;20115;-77
2023/09/20 04:19:08;;;;;;;8.73;1.50;;;;;;;15.48;100.00;97487.59;5072045;28;20034;-80
2023/09/20 04:21:38;;;;;;;16.90;2.25;;;;;;;15.38;100.00;97496.25;5068702;28;20110;-78
2023/09/20 04:24:08;;;;;;;13.13;2.60;;;;;;;15.31;100.00;97493.00;5030780;28;20047;-78
2023/09/20 04:26:37;;;;;;;9.18;1.35;;;;;;;15.24;100.00;97500.38;5032322;28;20485;-77
2023/09/20 04:29:07;;;;;;;13.93;2.03;;;;;;;15.15;100.00;97494.66;5063612;28;20105;-79
2023/09/20 04:31:35;;;;;;;10.65;1.77;;;;;;;14.98;100.00;97503.50;5047744;28;20049;-84
2023/09/20 04:34:05;;;;;;;16.25;2.58;;;;;;;14.91;100.00;97510.06;5040241;28;20404;-85
2023/09/20 04:36:35;;;;;;;11.13;1.38;;;;;;;14.78;100.00;97503.22;5053105;28;20060;-84
2023/09/20 04:39:04;;;;;;;11.57;1.83;;;;;;;14.68;100.00;97510.00;5044606;28;20064;-85
2023/09/20 04:41:34;;;;;;;16.92;1.98;;;;;;;14.58;100.00;97518.63;5036069;28;20428;-83
2023/09/20 04:44:05;;;;;;;12.13;1.83;;;;;;;14.56;100.00;97525.22;5041036;28;20036;-83
2023/09/20 04:46:39;;;;;;;10.05;1.75;;;;;;;14.51;100.00;97521.44;5033938;28;20078;-84
2023/09/20 04:49:10;;;;;;;11.18;1.42;;;;;;;14.47;100.00;97508.88;5050211;28;20047;-85
2023/09/20 04:51:40;;;;;;;13.60;1.83;;;;;;;14.39;100.00;97510.91;5048586;28;20033;-85
2023/09/20 04:54:10;;;;;;;12.48;1.63;;;;;;;14.39;100.00;97518.06;5058363;28;20086;-86
2023/09/20 04:56:44;;;;;;;10.60;1.48;;;;;;;14.36;100.00;97523.84;5035552;28;20079;-83
2023/09/20 04:59:14;;;;;;;11.38;1.45;;;;;;;14.32;100.00;97526.19;5055850;28;20028;-85
2023/09/20 05:01:42;;;;;;;14.70;2.05;;;;;;;14.27;100.00;97523.44;5051000;28;20043;-84
2023/09/20 05:04:15;;;;;;;8.88;1.77;;;;;;;14.26;100.00;97517.34;5037708;28;20028;-83
2023/09/20 05:06:45;;;;;;;9.05;1.50;;;;;;;14.25;100.00;97514.94;5037565;28;20059;-84
2023/09/20 05:09:16;;;;;;;10.68;1.45;;;;;;;14.25;100.00;97509.63;5033307;28;20043;-79
2023/09/20 05:11:46;;;;;;;12.98;2.05;;;;;;;14.23;100.00;97519.66;5044870;28;20046;-80
2023/09/20 05:14:17;;;;;;;10.57;1.90;;;;;;;14.24;100.00;97519.44;5062768;28;20752;-79
2023/09/20 05:16:47;;;;;;;11.10;1.60;;;;;;;14.23;100.00;97507.19;5064222;28;20063;-80
2023/09/20 05:19:16;;;;;;;11.27;1.73;;;;;;;14.20;100.00;97506.88;5069259;28;20518;-79
2023/09/20 05:21:45;;;;;;;12.40;1.67;;;;;;;14.12;100.00;97510.72;5035696;28;20028;-79
2023/09/20 05:24:14;;;;;;;10.55;1.40;;;;;;;14.14;100.00;97503.34;5064463;28;20097;-79
2023/09/20 05:26:43;;;;;;;10.48;1.38;;;;;;;14.13;100.00;97517.63;5097616;28;20028;-80
2023/09/20 05:29:11;;;;;;;10.93;1.50;;;;;;;14.05;100.00;97512.75;5064460;28;20051;-80
2023/09/20 05:31:39;;;;;;;11.25;1.60;;;;;;;14.07;100.00;97515.94;5078068;28;20092;-80
2023/09/20 05:34:08;;;;;;;9.18;2.17;;;;;;;14.03;100.00;97518.25;5073579;28;20027;-81
2023/09/20 05:36:37;;;;;;;11.10;2.35;;;;;;;14.04;100.00;97525.22;5087223;28;20040;-79
2023/09/20 05:39:06;;;;;;;8.18;1.60;;;;;;;14.00;100.00;97522.22;5066060;28;20077;-78
2023/09/20 05:41:34;;;;;;;8.10;1.60;;;;;;;13.98;100.00;97518.19;5070759;28;20390;-77
2023/09/20 05:44:04;;;;;;;14.85;1.63;;;;;;;13.93;100.00;97515.44;5075780;28;20038;-80
2023/09/20 05:46:31;;;;;;;18.20;1.88;;;;;;;13.93;100.00;97515.44;5102426;28;20166;-78
2023/09/20 05:49:00;;;;;;;11.15;1.50;;;;;;;13.90;100.00;97524.72;5067214;28;20039;-77
2023/09/20 05:51:27;;;;;;;10.23;1.33;;;;;;;13.86;100.00;97520.91;5088028;28;20032;-81
2023/09/20 05:53:55;;;;;;;12.90;1.67;;;;;;;13.82;100.00;97530.38;5098395;28;20090;-81
2023/09/20 05:56:24;;;;;;;8.90;1.85;;;;;;;13.77;100.00;97523.97;5071515;28;20047;-79
2023/09/20 05:58:53;;;;;;;9.60;1.52;;;;;;;13.71;100.00;97526.75;5060267;28;20503;-80
2023/09/20 06:01:23;;;;;;;7.75;1.48;;;;;;;13.71;100.00;97532.06;5091090;28;20058;-80
2023/09/20 06:03:56;;;;;;;11.35;1.63;;;;;;;13.67;100.00;97523.75;5072976;28;20030;-81
2023/09/20 06:06:24;;;;;;;9.23;1.27;;;;;;;13.70;100.00;97538.38;5098817;28;20089;-77
2023/09/20 06:08:52;;;;;;;9.68;1.60;;;;;;;13.64;100.00;97526.88;5070069;28;20085;-78
2023/09/20 06:11:20;;;;;;;6.75;1.30;;;;;;;13.65;100.00;97531.13;5056463;28;20024;-81
2023/09/20 06:13:50;;;;;;;10.85;1.38;;;;;;;13.63;100.00;97530.59;5068885;28;20111;-80
2023/09/20 06:16:18;;;;;;;8.52;1.45;;;;;;;13.65;100.00;97536.44;5056817;28;20091;-81
2023/09/20 06:18:50;;;;;;;7.05;1.05;;;;;;;13.66;100.00;97535.41;5069779;28;20055;-79
2023/09/20 06:21:18;;;;;;;13.23;1.50;;;;;;;13.62;100.00;97532.44;5055256;28;20039;-78
2023/09/20 06:23:48;;;;;;;8.77;2.38;;;;;;;13.64;100.00;97540.16;5052435;28;20578;-80
2023/09/20 06:26:18;;;;;;;14.90;2.03;;;;;;;13.60;100.00;97545.13;5073156;28;20043;-81
2023/09/20 06:28:50;;;;;;;14.82;1.58;;;;;;;13.64;100.00;97556.06;5055577;28;20028;-80
2023/09/20 06:31:20;;;;;;;8.52;1.17;;;;;;;13.62;100.00;97552.84;5079813;28;20034;-79
2023/09/20 06:33:54;;;;;;;10.68;1.48;;;;;;;13.61;100.00;97561.84;5071938;28;20063;-80
2023/09/20 06:36:22;;;;;;;13.25;1.55;;;;;;;13.57;100.00;97563.38;5102821;28;20433;-81
2023/09/20 06:38:51;;;;;;;9.63;1.25;;;;;;;13.58;100.00;97563.16;5070660;28;20041;-80
2023/09/20 06:41:20;;;;;;;13.07;1.48;;;;;;;13.55;100.00;97571.56;5068666;28;20032;-79
2023/09/20 06:43:48;;;;;;;10.18;1.42;;;;;;;13.49;100.00;97580.44;5072512;28;20536;-78
2023/09/20 06:46:15;;;;;;;6.97;1.13;;;;;;;13.38;100.00;97550.22;5088690;28;20031;-81
2023/09/20 06:48:45;;;;;;;6.45;1.92;;;;;;;13.26;100.00;97574.94;5066327;28;20114;-81
2023/09/20 06:51:14;;;;;;;7.78;1.20;;;;;;;13.20;100.00;97583.84;5069113;28;20082;-81
2023/09/20 06:53:41;;;;;;;10.93;1.42;;;;;;;13.11;100.00;97582.56;5064223;28;20039;-81
2023/09/20 06:56:09;;;;;;;4.93;0.98;;;;;;;13.05;100.00;97600.22;5081013;28;20036;-80
2023/09/20 06:58:38;;;;;;;6.05;1.20;;;;;;;12.97;100.00;97593.41;5070482;28;20020;-81
2023/09/20 07:01:09;;;;;;;12.95;1.55;;;;;;;12.94;100.00;97590.41;5067619;28;20488;-80
2023/09/20 07:03:36;;;;;;;8.38;0.93;;;;;;;12.87;100.00;97587.88;5086454;28;20030;-78
2023/09/20 07:06:05;;;;;;;7.60;1.30;;;;;;;12.89;100.00;97597.22;5091560;28;20076;-80
2023/09/20 07:08:34;;;;;;;8.52;1.10;;;;;;;12.85;100.00;97606.66;5070513;28;20395;-81
2023/09/20 07:11:03;;;;;;;8.10;1.05;;;;;;;12.87;100.00;97607.22;5067150;28;20036;-81
2023/09/20 07:13:32;;;;;;;7.97;0.95;;;;;;;12.90;100.00;97606.78;5054932;28;20606;-80
2023/09/20 07:16:04;;;;;;;5.50;1.08;;;;;;;12.93;100.00;97604.72;5082562;28;20100;-80
2023/09/20 07:18:32;;;;;;;6.93;0.93;;;;;;;12.91;100.00;97612.88;5081364;28;20067;-82
2023/09/20 07:21:04;;;;;;;10.30;0.82;;;;;;;12.97;100.00;97617.28;5086555;27;20040;-77
2023/09/20 07:23:34;;;;;;;5.85;1.20;;;;;;;12.99;100.00;97617.84;5084513;28;20040;-80
2023/09/20 07:26:05;;;;;;;10.25;1.30;;;;;;;12.97;100.00;97627.06;5052992;28;20032;-80
2023/09/20 07:28:37;;;;;;;6.22;1.13;;;;;;;13.01;100.00;97628.22;5061007;28;20039;-79
2023/09/20 07:31:06;;;;;;;4.90;0.80;;;;;;;13.02;100.00;97629.84;5090015;28;20039;-79
2023/09/20 07:33:34;;;;;;;11.25;1.25;;;;;;;13.06;100.00;97630.19;5091587;28;20160;-79
2023/09/20 07:36:01;;;;;;;7.30;1.13;;;;;;;13.14;100.00;97637.78;5067009;28;20206;-80
2023/09/20 07:38:32;;;;;;;7.28;1.15;;;;;;;13.19;100.00;97643.22;5075842;28;20133;-78
2023/09/20 07:41:13;;;;;;;8.73;0.82;;;;;;;13.31;100.00;97647.72;5100762;28;20110;-79
2023/09/20 07:43:43;;;;;;;10.40;1.88;;;;;;;13.29;100.00;97647.94;5064522;28;20036;-79
2023/09/20 07:46:13;;;;;;;4.65;0.85;;;;;;;13.31;100.00;97650.34;5079496;28;20039;-78
2023/09/20 07:48:47;;;;;;;9.27;1.00;;;;;;;13.30;100.00;97652.19;5069891;28;20168;-80
2023/09/20 07:51:29;;;;;;;5.80;0.73;;;;;;;13.29;100.00;97655.91;5086944;27;20105;-78
2023/09/20 07:53:58;;;;;;;5.65;0.90;;;;;;;13.30;100.00;97659.38;5080230;28;20069;-82
2023/09/20 07:56:26;;;;;;;5.68;0.50;;;;;;;13.28;100.00;97671.00;5074450;28;20085;-80
2023/09/20 07:58:55;;;;;;;7.25;0.60;;;;;;;13.33;100.00;97672.94;5095497;28;20065;-80
2023/09/20 08:01:24;;;;;;;4.72;0.50;;;;;;;13.36;100.00;97672.50;5068952;28;20039;-78
2023/09/20 08:03:53;;;;;;;5.25;0.98;;;;;;;13.43;100.00;97677.69;5082081;28;20061;-77
2023/09/20 08:06:22;;;;;;;10.60;1.00;;;;;;;13.44;100.00;97678.50;5065435;28;20485;-78
2023/09/20 08:08:50;;;;;;;9.13;1.10;;;;;;;13.46;100.00;97679.06;5067019;28;20035;-78
2023/09/20 08:11:18;;;;;;;5.38;1.15;;;;;;;13.43;100.00;97685.66;5082214;28;20102;-80
2023/09/20 08:13:48;;;;;;;3.17;0.50;;;;;;;13.51;100.00;97693.28;5067970;28;20047;-78
2023/09/20 08:16:16;;;;;;;9.43;1.05;;;;;;;13.54;100.00;97685.91;5075598;28;20515;-79
2023/09/20 08:21:35;;;;;;;6.30;0.95;;;;;;;13.58;100.00;97690.53;5085498;28;20039;-79
2023/09/20 09:00:27;;;;;;;4.90;0.60;;;;;;;13.67;100.00;97717.50;5103971;28;20027;-80
2023/09/20 09:02:57;;;;;;;5.38;1.13;;;;;;;13.61;100.00;97732.53;5073516;28;20028;-77
2023/09/20 09:05:27;;;;;;;7.65;0.82;;;;;;;13.65;100.00;97730.19;5076285;28;20028;-79
2023/09/20 09:08:01;;;;;;;7.22;0.70;;;;;;;13.60;100.00;97738.06;5064227;28;20091;-78
2023/09/20 09:10:29;;;;;;;5.65;1.25;;;;;;;13.50;100.00;97731.50;5060552;28;20058;-79
2023/09/20 09:12:57;;;;;;;6.00;1.02;;;;;;;13.46;100.00;97735.59;5103297;28;20069;-77
2023/09/20 09:15:27;;;;;;;6.82;0.93;;;;;;;13.48;100.00;97738.03;5059497;28;20036;-78
2023/09/20 09:17:56;;;;;;;7.40;0.90;;;;;;;13.52;100.00;97739.22;5080946;28;20522;-78
2023/09/20 09:20:26;;;;;;;8.75;0.75;;;;;;;13.58;100.00;97748.91;5070337;28;20081;-80
2023/09/20 09:22:53;;;;;;;4.30;0.50;;;;;;;13.62;100.00;97747.41;5067616;28;20131;-80
2023/09/20 09:25:31;;;;;;;9.02;1.13;;;;;;;13.72;100.00;97732.75;5084056;28;20040;-81
2023/09/20 09:28:01;;;;;;;4.13;0.50;;;;;;;13.81;100.00;97743.81;5065477;28;20036;-79
2023/09/20 09:30:33;;;;;;;2.20;0.50;;;;;;;13.95;100.00;97741.72;5056089;28;20040;-78
2023/09/20 09:33:02;;;;;;;4.57;0.80;;;;;;;13.95;100.00;97752.34;5051249;28;20976;-80
2023/09/20 09:35:30;;;;;;;10.55;1.10;;;;;;;13.91;100.00;97754.66;5047428;28;20032;-78
2023/09/20 09:38:01;;;;;;;3.83;0.43;;;;;;;13.89;100.00;97764.69;5069346;28;20034;-79
2023/09/20 09:40:30;;;;;;;7.30;1.00;;;;;;;13.82;100.00;97772.78;5073019;28;20442;-79
2023/09/20 09:43:13;;;;;;;4.88;0.82;;;;;;;13.86;100.00;97771.28;5078611;28;20114;-77
2023/09/20 09:45:44;;;;;;;6.57;0.63;;;;;;;13.79;100.00;97767.94;5091527;28;20621;-80
2023/09/20 09:48:16;;;;;;;5.43;0.68;;;;;;;13.82;100.00;97770.16;5074954;28;20035;-81
2023/09/20 09:50:46;;;;;;;2.72;0.77;;;;;;;13.79;100.00;97772.44;5077363;28;20036;-80
2023/09/20 09:53:15;;;;;;;7.40;1.33;;;;;;;13.80;100.00;97766.91;5057312;28;20390;-79
2023/09/20 09:55:44;;;;;;;3.95;0.85;;;;;;;13.86;100.00;97758.00;5084121;28;20036;-80
2023/09/20 09:58:12;;;;;;;9.30;0.80;;;;;;;13.86;100.00;97763.31;5087712;28;20039;-80
2023/09/20 10:00:45;;;;;;;5.32;0.80;;;;;;;13.95;100.00;97769.06;5074206;28;20067;-81
2023/09/20 10:03:25;;;;;;;3.28;0.60;;;;;;;13.99;100.00;97759.63;5070965;28;20056;-81
2023/09/20 10:06:18;;;;;;;5.47;0.68;;;;;;;14.06;100.00;97761.34;5087612;28;20024;-78
2023/09/20 10:08:50;;;;;;;4.45;0.52;;;;;;;14.13;100.00;97764.66;5080955;27;20036;-81
2023/09/20 10:11:23;;;;;;;4.75;0.50;;;;;;;14.15;100.00;97765.25;5072724;28;20396;-79
2023/09/20 10:13:55;;;;;;;6.57;0.70;;;;;;;14.18;100.00;97775.41;5082668;28;20399;-79
2023/09/20 10:16:25;;;;;;;5.22;1.05;;;;;;;14.27;100.00;97786.44;5073791;28;20390;-77
2023/09/20 10:18:56;;;;;;;3.83;0.50;;;;;;;14.38;100.00;97782.19;5061143;28;20069;-88
2023/09/20 10:21:27;;;;;;;2.95;0.45;;;;;;;14.51;100.00;97789.06;5085543;28;20035;-86
2023/09/20 10:24:04;;;;;;;4.32;0.45;;;;;;;14.60;100.00;97784.19;5074905;28;20149;-80
2023/09/20 10:26:39;;;;;;;6.95;0.63;;;;;;;14.64;100.00;97783.47;5055354;28;20149;-80
2023/09/20 10:29:28;;;;;;;2.35;0.40;;;;;;;14.67;100.00;97778.72;5072547;28;20249;-79
2023/09/20 10:32:13;;;;;;;6.22;0.85;;;;;;;14.69;100.00;97790.75;5074048;28;20102;-78
2023/09/20 10:34:42;;;;;;;8.93;0.75;;;;;;;14.70;100.00;97773.72;5077973;28;20373;-78
2023/09/20 10:37:12;;;;;;;6.25;0.50;;;;;;;14.81;100.00;97787.25;5080477;28;20401;-78
2023/09/20 10:39:44;;;;;;;2.67;0.40;;;;;;;14.88;100.00;97786.06;5091994;28;20043;-79
2023/09/20 10:42:12;;;;;;;7.47;0.88;;;;;;;14.91;100.00;97787.44;5072690;28;20073;-80
2023/09/20 10:44:42;;;;;;;4.00;0.60;;;;;;;14.93;100.00;97795.16;5056623;28;20043;-80
2023/09/20 10:47:16;;;;;;;3.55;0.90;;;;;;;15.00;100.00;97799.28;5054201;28;20043;-81
2023/09/20 10:49:47;;;;;;;4.95;0.65;;;;;;;15.12;100.00;97785.94;5083691;28;20036;-81
2023/09/20 10:52:37;;;;;;;5.38;0.90;;;;;;;15.23;100.00;97786.09;5060933;28;20028;-79
2023/09/20 10:55:16;;;;;;;3.95;0.60;;;;;;;15.28;100.00;97810.16;5058637;28;20055;-79
2023/09/20 10:57:44;;;;;;;5.30;0.52;;;;;;;15.33;100.00;97804.09;5065666;28;20488;-80
2023/09/20 11:00:14;;;;;;;4.63;0.57;;;;;;;15.43;100.00;97803.47;5069435;28;20028;-78
2023/09/20 11:02:42;;;;;;;2.63;0.30;;;;;;;15.57;100.00;97801.28;5086394;28;20118;-80
2023/09/20 11:05:14;;;;;;;6.40;1.27;;;;;;;15.73;100.00;97800.47;5081306;28;20034;-78
2023/09/20 11:07:43;;;;;;;6.22;0.68;;;;;;;15.82;100.00;97798.19;5069478;28;20024;-79
2023/09/20 11:10:13;;;;;;;6.43;0.73;;;;;;;15.87;100.00;97805.44;5023634;28;20494;-85
2023/09/20 11:12:44;;;;;;;6.15;0.77;;;;;;;15.91;100.00;97809.22;5088582;28;20044;-79
2023/09/20 11:15:18;;;;;;;3.50;0.70;;;;;;;15.90;100.00;97817.47;5073851;28;20036;-79
2023/09/20 11:17:48;;;;;;;2.53;0.30;;;;;;;15.70;100.00;97819.56;5083944;28;20043;-79
2023/09/20 11:20:17;;;;;;;2.15;0.43;;;;;;;15.50;100.00;97830.72;5107964;28;20463;-77
2023/09/20 11:22:44;;;;;;;1.63;0.30;;;;;;;15.20;100.00;97827.31;5078574;28;20447;-83
2023/09/20 11:25:12;;;;;;;2.63;0.50;;;;;;;15.00;100.00;97825.09;5088736;28;20046;-78
2023/09/20 11:27:40;;;;;;;2.30;0.50;;;;;;;14.83;100.00;97825.03;5059436;28;20100;-79
2023/09/20 11:30:08;;;;;;;3.75;0.47;;;;;;;14.67;100.00;97827.38;5109597;28;20364;-78
2023/09/20 11:32:41;;;;;;;3.40;0.70;;;;;;;14.49;100.00;97817.75;5049172;28;20032;-82
2023/09/20 11:35:12;;;;;;;1.33;0.40;;;;;;;14.29;100.00;97823.41;5094867;28;20499;-79
2023/09/20 11:37:41;;;;;;;5.80;0.80;;;;;;;14.24;100.00;97835.56;5067889;28;20039;-78
2023/09/20 11:40:09;;;;;;;6.13;0.82;;;;;;;14.19;100.00;97832.78;5069379;28;20395;-78
2023/09/20 11:42:43;;;;;;;3.30;0.70;;;;;;;14.29;100.00;97831.38;5056774;28;20031;-81
2023/09/20 11:45:11;;;;;;;3.05;0.50;;;;;;;14.28;100.00;97827.94;5083047;28;20041;-80
2023/09/20 11:47:42;;;;;;;4.57;0.90;;;;;;;14.27;100.00;97819.16;5073228;28;20428;-80
2023/09/20 11:50:14;;;;;;;2.90;0.65;;;;;;;14.26;100.00;97825.53;5052018;28;20081;-81
2023/09/20 11:52:47;;;;;;;3.17;0.40;;;;;;;14.22;100.00;97827.00;5066820;28;20165;-79
2023/09/20 11:55:16;;;;;;;5.68;0.60;;;;;;;14.15;100.00;97821.03;5062423;28;20047;-81
2023/09/20 11:57:46;;;;;;;5.43;0.80;;;;;;;14.23;100.00;97833.13;5070879;28;20035;-81
2023/09/20 12:00:25;;;;;;;5.35;0.70;;;;;;;14.47;100.00;97828.59;5057131;28;20128;-80
2023/09/20 12:02:53;;;;;;;3.75;0.82;;;;;;;14.54;100.00;97844.41;5058365;28;20058;-77
2023/09/20 12:05:24;;;;;;;0.88;0.22;;;;;;;14.35;100.00;97841.91;5069785;28;20174;-79
2023/09/20 12:07:59;;;;;;;2.17;0.47;;;;;;;14.22;100.00;97834.97;5083882;28;20081;-78
2023/09/20 12:10:30;;;;;;;5.60;0.50;;;;;;;14.07;100.00;97835.47;5052521;28;20097;-78
2023/09/20 12:13:00;;;;;;;1.13;0.22;;;;;;;13.98;100.00;97844.81;5075778;28;20081;-80
2023/09/20 12:15:32;;;;;;;0.90;0.35;;;;;;;13.91;100.00;97852.91;5052075;28;20054;-79
2023/09/20 12:18:02;;;;;;;1.35;0.30;;;;;;;13.92;100.00;97848.41;5062494;28;20043;-79